createdAt,value
2018-12-16T00:00:00.057Z,27.93
2018-12-16T00:02:27.460Z,28.43
2018-12-16T00:04:54.792Z,27.20
2018-12-16T00:07:36.384Z,31.20
2018-12-16T00:10:04.165Z,25.00
2018-12-16T00:12:31.582Z,30.17
2018-12-16T00:14:58.961Z,29.07
2018-12-16T00:17:32.077Z,29.73
2018-12-16T00:19:59.488Z,25.90
2018-12-16T00:22:30.009Z,28.00
2018-12-16T00:24:56.773Z,29.83
2018-12-16T00:27:29.951Z,26.73
2018-12-16T00:29:57.325Z,25.00
2018-12-16T00:32:24.690Z,25.13
2018-12-16T00:34:52.072Z,28.63
2018-12-16T00:37:33.790Z,26.63
2018-12-16T00:40:01.173Z,22.20
2018-12-16T00:42:28.516Z,26.03
2018-12-16T00:44:55.909Z,23.90
2018-12-16T00:47:23.295Z,24.13
2018-12-16T00:49:50.664Z,24.70
2018-12-16T00:52:18.030Z,27.23
2018-12-16T00:54:45.452Z,26.03
2018-12-16T00:57:17.755Z,29.57
2018-12-16T00:59:45.141Z,23.73
2018-12-16T01:02:17.990Z,25.40
2018-12-16T01:04:45.404Z,21.03
2018-12-16T01:07:16.340Z,23.37
2018-12-16T01:09:43.734Z,28.80
2018-12-16T01:12:11.099Z,24.27
2018-12-16T01:14:38.467Z,25.20
2018-12-16T01:17:05.899Z,29.33
2018-12-16T01:19:33.260Z,32.53
2018-12-16T01:22:00.693Z,28.87
2018-12-16T01:24:28.095Z,26.90
2018-12-16T01:26:55.491Z,30.23
2018-12-16T01:29:22.904Z,30.83
2018-12-16T01:31:50.337Z,29.17
2018-12-16T01:34:17.699Z,30.10
2018-12-16T01:36:45.105Z,29.53
2018-12-16T01:39:12.494Z,27.30
2018-12-16T01:41:39.890Z,27.60
2018-12-16T01:44:07.276Z,24.33
2018-12-16T01:46:34.674Z,29.87
2018-12-16T01:49:02.059Z,28.33
2018-12-16T01:51:29.508Z,27.93
2018-12-16T01:53:56.919Z,28.40
2018-12-16T01:56:24.321Z,30.03
2018-12-16T01:58:51.683Z,27.77
2018-12-16T02:01:19.063Z,28.47
2018-12-16T02:03:46.420Z,29.90
2018-12-16T02:06:13.863Z,31.87
2018-12-16T02:08:41.270Z,29.77
2018-12-16T02:11:08.624Z,28.13
2018-12-16T02:13:36.020Z,33.37
2018-12-16T02:16:03.501Z,33.00
2018-12-16T02:18:30.904Z,31.57
2018-12-16T02:20:58.279Z,29.57
2018-12-16T02:23:25.636Z,30.77
2018-12-16T02:26:02.406Z,31.27
2018-12-16T02:28:29.781Z,32.27
2018-12-16T02:30:57.160Z,33.13
2018-12-16T02:33:24.556Z,31.67
2018-12-16T02:38:44.742Z,34.80
2018-12-16T02:41:12.196Z,35.40
2018-12-16T02:43:39.640Z,31.60
2018-12-16T02:46:07.015Z,29.63
2018-12-16T02:48:34.516Z,29.53
2018-12-16T02:51:01.871Z,30.83
2018-12-16T02:53:29.290Z,31.63
2018-12-16T02:55:56.670Z,33.03
2018-12-16T02:58:24.081Z,32.90
2018-12-16T03:00:51.591Z,31.53
2018-12-16T03:03:18.942Z,33.20
2018-12-16T03:05:46.351Z,28.17
2018-12-16T03:08:13.808Z,31.10
2018-12-16T03:10:41.179Z,31.67
2018-12-16T03:13:08.600Z,31.73
2018-12-16T03:15:36.130Z,32.27
2018-12-16T03:18:03.582Z,31.17
2018-12-16T03:20:31.097Z,35.93
2018-12-16T03:22:58.504Z,32.17
2018-12-16T03:25:25.884Z,30.90
2018-12-16T03:27:53.274Z,32.93
2018-12-16T03:30:23.257Z,33.10
2018-12-16T03:32:50.067Z,31.00
2018-12-16T03:35:17.452Z,34.40
2018-12-16T03:37:44.813Z,33.30
2018-12-16T03:40:12.213Z,32.40
2018-12-16T03:42:39.564Z,39.27
2018-12-16T03:45:07.010Z,35.60
2018-12-16T03:47:34.477Z,32.93
2018-12-16T03:50:01.879Z,34.67
2018-12-16T03:52:29.272Z,32.67
2018-12-16T03:54:56.671Z,34.27
2018-12-16T03:57:23.992Z,34.77
2018-12-16T03:59:51.380Z,36.33
2018-12-16T04:02:18.782Z,35.30
2018-12-16T04:04:46.123Z,34.43
2018-12-16T04:07:13.533Z,35.33
2018-12-16T04:09:40.865Z,37.33
2018-12-16T04:12:08.279Z,37.57
2018-12-16T04:14:35.604Z,41.43
2018-12-16T04:17:03.011Z,37.07
2018-12-16T04:19:30.391Z,41.27
2018-12-16T04:21:57.817Z,42.23
2018-12-16T04:24:25.197Z,36.73
2018-12-16T04:26:52.604Z,42.07
2018-12-16T04:29:19.922Z,37.53
2018-12-16T04:31:47.297Z,40.50
2018-12-16T04:34:14.657Z,41.93
2018-12-16T04:36:42.034Z,39.40
2018-12-16T04:39:09.385Z,35.97
2018-12-16T04:41:36.742Z,41.97
2018-12-16T04:44:09.857Z,45.33
2018-12-16T04:46:39.216Z,43.97
2018-12-16T04:49:06.723Z,42.67
2018-12-16T04:51:34.247Z,44.80
2018-12-16T04:54:01.585Z,44.17
2018-12-16T04:56:32.240Z,45.17
2018-12-16T04:58:59.595Z,42.37
2018-12-16T05:01:32.607Z,43.70
2018-12-16T05:04:00.011Z,45.43
2018-12-16T05:06:27.486Z,46.03
2018-12-16T05:08:54.862Z,50.07
2018-12-16T05:11:22.201Z,42.27
2018-12-16T05:13:49.570Z,43.83
2018-12-16T05:16:36.733Z,41.47
2018-12-16T05:19:10.713Z,45.83
2018-12-16T05:21:38.197Z,39.67
2018-12-16T05:24:09.371Z,45.77
2018-12-16T05:26:40.182Z,45.60
2018-12-16T05:29:07.547Z,45.37
2018-12-16T05:31:34.909Z,49.13
2018-12-16T05:34:02.271Z,50.63
2018-12-16T05:36:29.642Z,52.30
2018-12-16T05:38:57.048Z,48.57
2018-12-16T05:41:24.441Z,50.60
2018-12-16T05:43:51.853Z,48.87
2018-12-16T05:46:32.813Z,52.13
2018-12-16T05:49:00.185Z,50.43
2018-12-16T05:51:33.222Z,48.83
2018-12-16T05:54:06.337Z,48.50
2018-12-16T05:56:38.847Z,47.30
2018-12-16T05:59:06.254Z,46.70
2018-12-16T06:01:34.701Z,46.87
2018-12-16T06:04:03.717Z,44.53
2018-12-16T06:06:38.135Z,42.80
2018-12-16T06:09:05.689Z,46.83
2018-12-16T06:11:33.107Z,45.27
2018-12-16T06:14:00.461Z,48.93
2018-12-16T06:16:27.838Z,43.53
2018-12-16T06:18:56.067Z,48.97
2018-12-16T06:21:23.456Z,43.57
2018-12-16T06:23:55.547Z,42.73
2018-12-16T06:26:20.251Z,46.23
2018-12-16T06:28:47.666Z,60.20
2018-12-16T06:31:15.021Z,48.70
2018-12-16T06:33:42.390Z,43.93
2018-12-16T06:36:09.857Z,47.97
2018-12-16T06:38:37.290Z,44.10
2018-12-16T06:41:04.696Z,45.87
2018-12-16T06:43:32.137Z,42.50
2018-12-16T06:45:59.545Z,45.77
2018-12-16T06:48:26.937Z,45.40
2018-12-16T06:50:54.285Z,42.37
2018-12-16T06:53:21.662Z,39.23
2018-12-16T06:55:49.029Z,40.67
2018-12-16T06:58:16.403Z,47.27
2018-12-16T07:00:43.793Z,44.00
2018-12-16T07:03:11.172Z,44.27
2018-12-16T07:05:38.516Z,44.33
2018-12-16T07:08:05.885Z,38.63
2018-12-16T07:10:33.303Z,46.67
2018-12-16T07:13:00.667Z,45.27
2018-12-16T07:15:28.035Z,45.23
2018-12-16T07:17:56.385Z,39.83
2018-12-16T07:20:23.786Z,42.73
2018-12-16T07:22:51.161Z,47.93
2018-12-16T07:25:18.552Z,43.37
2018-12-16T07:27:46.877Z,45.07
2018-12-16T07:30:14.255Z,39.17
2018-12-16T07:34:06.130Z,46.50
2018-12-16T07:36:33.533Z,48.13
2018-12-16T07:39:00.905Z,44.07
2018-12-16T07:41:28.301Z,42.63
2018-12-16T07:43:55.770Z,42.60
2018-12-16T07:46:31.488Z,44.23
2018-12-16T07:48:59.010Z,46.13
2018-12-16T07:51:26.560Z,40.20
2018-12-16T07:53:54.074Z,38.80
2018-12-16T07:56:37.697Z,44.90
2018-12-16T07:59:05.071Z,40.97
2018-12-16T08:01:32.457Z,41.77
2018-12-16T08:03:59.949Z,52.30
2018-12-16T08:06:27.440Z,61.00
2018-12-16T08:08:54.822Z,56.97
2018-12-16T08:11:22.230Z,50.50
2018-12-16T08:13:49.558Z,47.63
2018-12-16T08:16:16.970Z,45.90
2018-12-16T08:18:44.314Z,40.67
2018-12-16T08:21:11.721Z,39.63
2018-12-16T08:23:44.494Z,35.43
2018-12-16T08:26:11.930Z,36.30
2018-12-16T08:28:39.375Z,35.73
2018-12-16T08:31:06.769Z,39.43
2018-12-16T08:33:34.154Z,33.30
2018-12-16T08:36:01.498Z,38.73
2018-12-16T08:38:28.988Z,37.03
2018-12-16T08:40:56.374Z,42.83
2018-12-16T08:43:23.757Z,41.43
2018-12-16T08:45:51.175Z,43.33
2018-12-16T08:48:18.621Z,39.93
2018-12-16T08:50:46.032Z,76.37
2018-12-16T08:53:13.462Z,49.70
2018-12-16T08:55:40.864Z,37.87
2018-12-16T08:58:08.287Z,55.77
2018-12-16T09:00:35.624Z,39.77
2018-12-16T09:03:03.075Z,41.80
2018-12-16T09:05:30.451Z,38.30
2018-12-16T09:07:57.874Z,36.77
2018-12-16T09:10:25.347Z,33.63
2018-12-16T09:12:52.732Z,35.03
2018-12-16T09:15:20.146Z,29.03
2018-12-16T09:17:47.542Z,29.90
2018-12-16T09:20:15.002Z,30.83
2018-12-16T09:22:42.416Z,33.53
2018-12-16T09:25:09.846Z,29.30
2018-12-16T09:27:37.207Z,29.97
2018-12-16T09:30:06.022Z,39.30
2018-12-16T09:32:33.391Z,33.10
2018-12-16T09:35:00.822Z,34.80
2018-12-16T09:37:28.183Z,32.33
2018-12-16T09:39:55.608Z,33.00
2018-12-16T09:42:22.991Z,28.40
2018-12-16T09:44:50.543Z,29.57
2018-12-16T09:47:18.228Z,42.00
2018-12-16T09:49:45.672Z,33.27
2018-12-16T09:52:13.045Z,23.33
2018-12-16T09:54:44.226Z,25.90
2018-12-16T09:57:09.853Z,23.73
2018-12-16T09:59:37.294Z,25.03
2018-12-16T10:02:04.762Z,26.67
2018-12-16T10:04:32.158Z,27.80
2018-12-16T10:06:59.618Z,33.90
2018-12-16T10:09:26.990Z,28.40
2018-12-16T10:11:54.458Z,23.23
2018-12-16T10:14:21.823Z,25.17
2018-12-16T10:16:49.298Z,27.43
2018-12-16T10:19:16.702Z,24.13
2018-12-16T10:21:44.163Z,21.60
2018-12-16T10:24:11.534Z,24.17
2018-12-16T10:26:39.279Z,26.67
2018-12-16T10:29:06.741Z,29.57
2018-12-16T10:31:34.129Z,31.83
2018-12-16T10:34:01.532Z,32.10
2018-12-16T10:36:29.015Z,25.97
2018-12-16T10:38:56.433Z,30.40
2018-12-16T10:41:23.816Z,27.23
2018-12-16T10:43:51.179Z,26.73
2018-12-16T10:46:18.587Z,22.37
2018-12-16T10:48:45.968Z,23.47
2018-12-16T10:51:13.332Z,35.13
2018-12-16T10:53:40.715Z,43.97
2018-12-16T10:56:08.079Z,62.70
2018-12-16T10:58:35.467Z,47.90
2018-12-16T11:01:08.471Z,33.10
2018-12-16T11:03:36.806Z,22.30
2018-12-16T11:06:04.229Z,23.27
2018-12-16T11:08:31.872Z,20.10
2018-12-16T11:10:59.199Z,21.43
2018-12-16T11:13:26.672Z,16.80
2018-12-16T11:15:54.183Z,16.07
2018-12-16T11:18:21.538Z,12.23
2018-12-16T11:20:48.937Z,11.13
2018-12-16T11:23:16.293Z,9.80
2018-12-16T11:25:48.128Z,10.30
2018-12-16T11:28:15.490Z,11.10
2018-12-16T11:30:42.927Z,7.90
2018-12-16T11:33:10.270Z,6.70
2018-12-16T11:35:37.689Z,5.23
2018-12-16T11:38:05.072Z,4.97
2018-12-16T11:40:41.885Z,9.43
2018-12-16T11:43:09.244Z,6.77
2018-12-16T11:45:36.792Z,5.10
2018-12-16T11:48:04.225Z,7.43
2018-12-16T11:50:31.604Z,4.80
2018-12-16T11:52:58.986Z,7.27
2018-12-16T11:55:26.474Z,4.03
2018-12-16T11:57:53.848Z,4.30
2018-12-16T12:00:21.243Z,4.33
2018-12-16T12:02:48.611Z,6.93
2018-12-16T12:05:16.104Z,4.97
2018-12-16T12:07:43.509Z,4.13
2018-12-16T12:10:10.902Z,3.43
2018-12-16T12:12:38.301Z,7.07
2018-12-16T12:15:05.790Z,3.93
2018-12-16T12:17:33.169Z,3.87
2018-12-16T12:20:00.565Z,4.50
2018-12-16T12:22:27.997Z,3.10
2018-12-16T12:24:55.381Z,3.30
2018-12-16T12:27:22.837Z,2.43
2018-12-16T12:29:50.204Z,7.93
2018-12-16T12:32:17.650Z,3.87
2018-12-16T12:34:45.067Z,1.50
2018-12-16T12:37:12.508Z,1.87
2018-12-16T12:39:39.884Z,2.73
2018-12-16T12:42:07.304Z,4.20
2018-12-16T12:44:34.726Z,2.97
2018-12-16T12:47:02.150Z,4.27
2018-12-16T12:49:29.578Z,3.77
2018-12-16T12:51:57.000Z,2.10
2018-12-16T12:54:24.440Z,2.73
2018-12-16T12:56:51.866Z,2.93
2018-12-16T12:59:19.293Z,4.10
2018-12-16T13:01:46.665Z,4.40
2018-12-16T13:04:14.040Z,3.80
2018-12-16T13:06:41.455Z,3.73
2018-12-16T13:09:08.924Z,2.83
2018-12-16T13:11:36.346Z,4.47
2018-12-16T13:14:03.844Z,3.50
2018-12-16T13:16:31.248Z,2.30
2018-12-16T13:18:58.693Z,2.43
2018-12-16T13:21:26.122Z,5.90
2018-12-16T13:23:53.487Z,3.53
2018-12-16T13:26:22.115Z,8.17
2018-12-16T13:28:49.548Z,3.77
2018-12-16T13:31:25.406Z,2.73
2018-12-16T13:33:52.827Z,16.67
2018-12-16T13:36:20.301Z,3.63
2018-12-16T13:38:47.676Z,4.30
2018-12-16T13:41:15.149Z,3.77
2018-12-16T13:43:42.586Z,3.23
2018-12-16T13:46:10.028Z,5.00
2018-12-16T13:48:37.405Z,3.07
2018-12-16T13:51:04.845Z,6.43
2018-12-16T13:53:32.231Z,5.30
2018-12-16T13:56:11.450Z,5.57
2018-12-16T13:58:46.849Z,6.80
2018-12-16T14:01:14.535Z,4.03
2018-12-16T14:03:41.994Z,7.37
2018-12-16T14:06:09.411Z,4.57
2018-12-16T14:08:36.849Z,3.30
2018-12-16T14:11:04.270Z,5.60
2018-12-16T14:13:31.665Z,4.13
2018-12-16T14:15:59.102Z,5.83
2018-12-16T14:18:26.534Z,4.73
2018-12-16T14:20:53.935Z,4.53
2018-12-16T14:23:21.379Z,5.90
2018-12-16T14:25:48.765Z,8.47
2018-12-16T14:28:18.245Z,4.63
2018-12-16T14:30:45.668Z,6.17
2018-12-16T14:33:13.119Z,10.70
2018-12-16T14:35:40.514Z,7.77
2018-12-16T14:38:08.091Z,12.13
2018-12-16T14:40:35.480Z,17.30
2018-12-16T14:43:02.911Z,9.90
2018-12-16T14:45:30.329Z,11.63
2018-12-16T14:47:57.729Z,11.33
2018-12-16T14:50:25.154Z,5.03
2018-12-16T14:52:52.583Z,31.13
2018-12-16T14:55:20.005Z,12.33
2018-12-16T14:58:09.089Z,5.87
2018-12-16T15:00:36.491Z,5.93
2018-12-16T15:03:04.030Z,19.30
2018-12-16T15:05:35.251Z,30.87
2018-12-16T15:08:02.738Z,24.27
2018-12-16T15:10:30.155Z,8.87
2018-12-16T15:12:57.574Z,7.30
2018-12-16T15:15:25.134Z,4.60
2018-12-16T15:17:56.669Z,3.57
2018-12-16T15:20:24.095Z,3.30
2018-12-16T15:22:55.538Z,7.37
2018-12-16T15:25:23.063Z,3.80
2018-12-16T15:27:50.511Z,7.67
2018-12-16T15:30:18.024Z,5.47
2018-12-16T15:32:45.455Z,6.67
2018-12-16T15:35:12.900Z,4.13
2018-12-16T15:37:44.064Z,3.97
2018-12-16T15:40:14.899Z,7.10
2018-12-16T15:42:45.729Z,6.40
2018-12-16T15:45:14.194Z,5.33
2018-12-16T15:47:41.744Z,6.27
2018-12-16T15:50:12.564Z,39.60
2018-12-16T15:52:43.567Z,96.63
2018-12-16T15:55:11.087Z,18.10
2018-12-16T15:57:39.591Z,12.73
2018-12-16T16:00:07.459Z,11.90
2018-12-16T16:02:34.829Z,14.37
2018-12-16T16:05:02.324Z,13.77
2018-12-16T16:07:29.728Z,14.80
2018-12-16T16:09:57.142Z,18.10
2018-12-16T16:12:28.245Z,20.63
2018-12-16T16:14:59.335Z,22.70
2018-12-16T16:17:30.271Z,19.60
2018-12-16T16:20:01.460Z,24.63
2018-12-16T16:22:30.560Z,24.00
2018-12-16T16:25:01.433Z,25.77
2018-12-16T16:27:34.849Z,24.33
2018-12-16T16:30:02.551Z,24.50
2018-12-16T16:32:33.575Z,22.93
2018-12-16T16:35:07.259Z,22.90
2018-12-16T16:37:37.031Z,25.53
2018-12-16T16:40:07.866Z,25.50
2018-12-16T16:42:35.262Z,25.90
2018-12-16T16:45:02.815Z,26.73
2018-12-16T16:47:32.465Z,24.20
2018-12-16T16:49:59.882Z,25.77
2018-12-16T16:52:30.864Z,29.20
2018-12-16T16:54:58.381Z,22.57
2018-12-16T16:57:33.727Z,24.43
2018-12-16T17:00:05.741Z,24.53
2018-12-16T17:02:36.504Z,22.73
2018-12-16T17:05:04.331Z,23.70
2018-12-16T17:07:31.727Z,20.60
2018-12-16T17:10:02.396Z,22.23
2018-12-16T17:12:33.371Z,22.27
2018-12-16T17:15:04.895Z,22.67
2018-12-16T17:17:35.371Z,20.37
2018-12-16T17:20:05.093Z,20.63
2018-12-16T17:22:36.375Z,18.13
2018-12-16T17:25:07.428Z,17.77
2018-12-16T17:27:38.395Z,19.93
2018-12-16T17:30:08.344Z,20.67
2018-12-16T17:32:39.308Z,21.97
2018-12-16T17:35:10.174Z,33.00
2018-12-16T17:40:37.125Z,21.90
2018-12-16T17:43:04.550Z,25.40
2018-12-16T17:45:35.799Z,23.13
2018-12-16T17:48:09.196Z,21.00
2018-12-16T17:50:36.571Z,21.90
2018-12-16T17:53:03.936Z,21.20
2018-12-16T17:55:31.400Z,22.33
2018-12-16T17:58:01.887Z,23.43
2018-12-16T18:00:29.335Z,23.87
2018-12-16T18:03:02.417Z,23.93
2018-12-16T18:05:30.812Z,20.93
2018-12-16T18:08:04.267Z,20.07
2018-12-16T18:10:34.817Z,22.10
2018-12-16T18:13:02.260Z,21.60
2018-12-16T18:15:29.740Z,24.77
2018-12-16T18:17:59.184Z,21.87
2018-12-16T18:20:30.577Z,24.70
2018-12-16T18:23:01.585Z,23.87
2018-12-16T18:25:32.542Z,37.47
2018-12-16T18:28:02.047Z,38.67
2018-12-16T18:30:29.391Z,54.47
2018-12-16T18:33:01.044Z,61.63
2018-12-16T18:35:28.465Z,29.27
2018-12-16T18:37:56.032Z,33.10
2018-12-16T18:40:26.971Z,31.10
2018-12-16T18:42:54.406Z,23.53
2018-12-16T18:45:21.910Z,23.93
2018-12-16T18:47:55.025Z,33.57
2018-12-16T18:50:26.304Z,39.40
2018-12-16T18:52:59.358Z,35.13
2018-12-16T18:55:32.515Z,35.80
2018-12-16T18:58:05.610Z,33.80
2018-12-16T19:00:36.051Z,29.00
2018-12-16T19:03:03.545Z,30.67
2018-12-16T19:05:31.031Z,37.20
2018-12-16T19:08:06.065Z,33.03
2018-12-16T19:10:33.530Z,33.90
2018-12-16T19:13:04.682Z,30.97
2018-12-16T19:15:35.530Z,24.50
2018-12-16T19:18:02.964Z,24.80
2018-12-16T19:20:32.352Z,20.37
2018-12-16T19:22:59.784Z,22.37
2018-12-16T19:25:30.349Z,25.43
2018-12-16T19:28:01.236Z,29.23
2018-12-16T19:30:34.851Z,22.47
2018-12-16T19:33:02.278Z,24.97
2018-12-16T19:35:35.429Z,25.70
2018-12-16T19:38:06.003Z,29.57
2018-12-16T19:40:33.484Z,27.33
2018-12-16T19:43:00.864Z,28.10
2018-12-16T19:45:28.962Z,26.90
2018-12-16T19:48:00.712Z,24.00
2018-12-16T19:50:28.190Z,23.27
2018-12-16T19:52:55.645Z,28.17
2018-12-16T19:55:26.508Z,24.77
2018-12-16T19:57:59.832Z,24.07
2018-12-16T20:00:27.290Z,23.17
2018-12-16T20:02:58.427Z,24.33
2018-12-16T20:05:33.623Z,25.13
2018-12-16T20:08:04.387Z,22.47
2018-12-16T20:10:31.867Z,23.77
2018-12-16T20:12:59.560Z,24.67
2018-12-16T20:15:30.956Z,24.47
2018-12-16T20:18:01.830Z,24.90
2018-12-16T20:20:29.244Z,26.10
2018-12-16T20:22:56.666Z,24.77
2018-12-16T20:25:25.577Z,23.87
2018-12-16T20:27:56.279Z,25.33
2018-12-16T20:30:27.262Z,32.63
2018-12-16T20:32:58.272Z,28.57
2018-12-16T20:35:31.691Z,27.90
2018-12-16T20:38:05.575Z,26.40
2018-12-16T20:40:33.211Z,27.77
2018-12-16T20:43:04.275Z,28.13
2018-12-16T20:45:33.497Z,24.53
2018-12-16T20:48:06.387Z,28.10
2018-12-16T20:50:38.815Z,32.40
2018-12-16T20:53:09.500Z,31.90
2018-12-16T20:55:42.856Z,31.37
2018-12-16T20:58:10.319Z,38.53
2018-12-16T21:00:41.203Z,40.27
2018-12-16T21:03:14.759Z,23.13
2018-12-16T21:05:47.815Z,22.70
2018-12-16T21:08:20.862Z,25.40
2018-12-16T21:10:52.270Z,36.80
2018-12-16T21:13:28.755Z,26.73
2018-12-16T21:16:07.246Z,24.13
2018-12-16T21:18:36.567Z,28.00
2018-12-16T21:21:04.075Z,27.43
2018-12-16T21:23:35.138Z,27.20
2018-12-16T21:26:04.306Z,28.77
2018-12-16T21:28:35.282Z,28.07
2018-12-16T21:31:06.146Z,32.67
2018-12-16T21:33:33.670Z,40.47
2018-12-16T21:36:05.060Z,32.53
2018-12-16T21:38:32.670Z,33.00
2018-12-16T21:41:03.926Z,28.53
2018-12-16T21:43:31.669Z,32.33
2018-12-16T21:46:00.956Z,25.37
2018-12-16T21:48:34.406Z,29.53
2018-12-16T21:51:01.776Z,31.87
2018-12-16T21:53:29.166Z,25.93
2018-12-16T21:55:57.625Z,26.47
2018-12-16T21:58:28.709Z,22.37
2018-12-16T22:00:56.096Z,27.10
2018-12-16T22:03:23.486Z,29.60
2018-12-16T22:05:54.359Z,27.63
2018-12-16T22:08:25.562Z,21.17
2018-12-16T22:10:53.082Z,27.87
2018-12-16T22:13:20.527Z,30.23
2018-12-16T22:17:12.681Z,24.43
2018-12-16T22:19:46.417Z,25.27
2018-12-16T22:22:14.130Z,28.03
2018-12-16T22:24:44.865Z,33.37
2018-12-16T22:27:15.861Z,25.47
2018-12-16T22:29:49.146Z,25.50
2018-12-16T22:32:16.598Z,25.00
2018-12-16T22:34:46.298Z,25.40
2018-12-16T22:37:18.220Z,24.10
2018-12-16T22:39:45.605Z,32.53
2018-12-16T22:42:12.993Z,43.17
2018-12-16T22:44:43.636Z,33.00
2018-12-16T22:47:14.646Z,52.97
2018-12-16T22:49:42.119Z,34.33
2018-12-16T22:52:12.726Z,25.60
2018-12-16T22:54:40.767Z,23.17
2018-12-16T22:58:32.764Z,28.07
2018-12-16T23:01:06.436Z,28.20
2018-12-16T23:03:34.139Z,23.90
2018-12-16T23:06:02.197Z,42.70
2018-12-16T23:08:30.054Z,26.73
2018-12-16T23:10:58.015Z,25.47
2018-12-16T23:13:25.586Z,22.27
2018-12-16T23:15:53.187Z,23.13
2018-12-16T23:18:20.571Z,22.40
2018-12-16T23:20:48.681Z,27.37
2018-12-16T23:23:17.460Z,31.07
2018-12-16T23:25:47.277Z,27.17
2018-12-16T23:28:15.026Z,29.03
2018-12-16T23:30:46.846Z,36.07
2018-12-16T23:33:14.251Z,29.20
2018-12-16T23:35:45.739Z,32.53
2018-12-16T23:38:13.451Z,34.93
2018-12-16T23:40:44.385Z,31.87
2018-12-16T23:43:12.156Z,35.63
2018-12-16T23:45:41.236Z,35.93
2018-12-16T23:48:12.205Z,29.20
2018-12-16T23:50:41.185Z,22.90
2018-12-16T23:53:12.384Z,22.80
2018-12-16T23:55:43.291Z,50.10
2018-12-16T23:58:12.344Z,54.17
